• Join FlightAware (Why Join?)
  • Login
  • US Flag 
06:13PM EDT


 

Airport Tracker/Info


-or-


 

Live Flight TrackerFlight Track Log ✈ JBU24 ✈ 18-May-2013 ✈ KJFK - KSYR

Flight Track Log - Related Links

Times and Time Zones

All times are in EDT time to prevent confusion due to time zone crossing. See the JBU24 flight status page for this flight to view local times or setup timezone preferences in your user account.

Time Position Orientation Groundspeed Altitude Reporting Facility
EDT Latitude Longitude Course Direction KTS MPH feet Rate Location/Type
05:35PM 40.6333 -73.7667 316° Northwest 156 180 1,600  Level New York TRACON
05:36PM 40.6167 -73.6833 105° East 229 264 3,100 2,220 Climbing New York TRACON
05:37PM 40.8016 -74.0016 323° Northwest  Level FlightAware Approximate
05:37PM 40.6500 -73.6000 62° Northeast 272 313 6,100  Level New York TRACON
05:38PM 40.8586 -74.0795 311° West  Level FlightAware Approximate
05:39PM 40.9130 -74.1611 311° West  Level FlightAware Approximate
05:39PM 40.8181 -73.5736 North 312 359 11,400  Level New York Center
05:40PM 40.9717 -74.2373 316° Northwest  Level FlightAware Approximate
05:40PM 40.8833 -73.5833 354° North 312 359 14,000  Level New York TRACON
05:41PM 40.9500 -73.6667 317° Northwest 317 365 16,200 1,500 Climbing New York TRACON
05:42PM 40.9833 -73.7833 291° West 376 433 17,000 360 Climbing New York TRACON
05:43PM 41.0167 -73.9000 291° West 352 405 17,000 600 Level New York TRACON
05:45PM 41.0889 -74.1242 293° West 357 411 18,900 1,320 Climbing New York Center
05:46PM 41.1269 -74.2500 292° West 345 397 21,200 1,500 Climbing New York Center
05:47PM 41.1650 -74.3706 293° West 345 397 22,000 360 Climbing New York Center
05:48PM 41.2008 -74.4883 292° West 345 397 22,000  Level New York Center
05:49PM 41.2411 -74.5981 296° West 352 405 22,000  Level New York Center
05:50PM 41.3083 -74.7122 308° West 346 398 22,000  Level New York Center
05:51PM 41.3694 -74.8128 309° West 346 398 22,000  Level New York Center
05:52PM 41.4325 -74.9133 310° West 351 404 22,000  Level New York Center
05:53PM 41.4914 -75.0139 308° West 356 410 22,000  Level New York Center
05:54PM 41.5525 -75.1119 310° West 356 410 22,000  Level New York Center
05:55PM 41.6111 -75.2128 308° West 356 410 22,000  Level New York Center
05:56PM 41.6742 -75.3114 311° West 356 410 22,000  Level New York Center
05:57PM 41.7633 -75.3731 333° Northwest 350 403 22,000  Level New York Center
05:58PM 41.8550 -75.4297 335° Northwest 355 409 22,000  Level New York Center
05:59PM 41.9486 -75.4836 337° Northwest 360 414 22,000  Level New York Center
06:00PM 42.0400 -75.5375 336° Northwest 360 414 22,000 -360 Level New York Center
06:01PM 42.1314 -75.5917 336° Northwest 360 414 21,300 -1,320 Descending New York Center
06:02PM 42.2250 -75.6461 337° Northwest 360 414 19,500 -1,740 Descending New York Center
06:03PM 42.3186 -75.7008 337° Northwest 360 414 17,800 -1,920 Descending New York Center
06:04PM 42.4081 -75.7525 337° Northwest 354 407 15,800 -2,160 Descending New York Center
06:05PM 42.4717 -75.7928 335° Northwest 350 403 14,200 -2,100 Descending Boston Center
06:06PM 42.5536 -75.8422 336° Northwest 344 396 12,400 -1,740 Descending Boston Center
06:07PM 42.6378 -75.8922 336° Northwest 337 388 10,900 -1,260 Descending Boston Center
06:08PM 42.7217 -75.9419 336° Northwest 293 337 9,900 -1,320 Descending Boston Center
06:09PM 42.7975 -75.9858 337° Northwest 271 312 8,100 -1,860 Descending Boston Center
06:10PM 42.8669 -76.0297 335° Northwest 277 319 6,000 -1,860 Descending Boston Center
06:11PM 42.9319 -76.0872 327° Northwest 277 319 4,400 -1,200 Descending Boston Center
06:12PM 42.9944 -76.1450 326° Northwest 272 313 3,600 -420 Descending Boston Center
06:13PM 43.0714 -76.2150 326° Northwest 255 293 3,600 -480 Level Boston Center
06:14PM 43.1317 -76.2244 353° North 213 245 2,600 -1,020 Descending Boston Center
06:15PM 43.1558 -76.1833 51° Northeast 152 175 1,700 -900 Descending Boston Center
06:16PM 43.1403 -76.1481 121° Southeast 122 140 1,000 -780 Descending Boston Center